createdAt,value
2019-03-24T00:00:05.097Z,0
2019-03-24T00:00:31.230Z,0
2019-03-24T00:00:57.365Z,0
2019-03-24T00:01:23.475Z,0
2019-03-24T00:01:51.557Z,0
2019-03-24T00:02:17.691Z,0
2019-03-24T00:02:43.801Z,0
2019-03-24T00:03:09.920Z,0
2019-03-24T00:03:36.022Z,0
2019-03-24T00:04:02.128Z,0
2019-03-24T00:04:28.243Z,0
2019-03-24T00:04:54.352Z,0
2019-03-24T00:05:20.451Z,0
2019-03-24T00:05:46.562Z,0
2019-03-24T00:06:12.671Z,0
2019-03-24T00:06:38.780Z,0
2019-03-24T00:07:04.892Z,0
2019-03-24T00:07:31.002Z,0
2019-03-24T00:07:57.163Z,0
2019-03-24T00:08:23.273Z,0
2019-03-24T00:08:49.379Z,0
2019-03-24T00:09:15.485Z,0
2019-03-24T00:09:41.588Z,0
2019-03-24T00:10:07.690Z,0
2019-03-24T00:10:33.800Z,0
2019-03-24T00:10:59.913Z,0
2019-03-24T00:11:26.017Z,0
2019-03-24T00:11:52.125Z,0
2019-03-24T00:12:18.238Z,0
2019-03-24T00:12:44.365Z,0
2019-03-24T00:13:10.474Z,0
2019-03-24T00:13:36.578Z,0
2019-03-24T00:14:02.688Z,0
2019-03-24T00:14:28.787Z,0
2019-03-24T00:14:54.901Z,0
2019-03-24T00:15:26.402Z,0
2019-03-24T00:15:49.115Z,0
2019-03-24T00:16:15.263Z,0
2019-03-24T00:16:41.357Z,0
2019-03-24T00:17:07.497Z,0
2019-03-24T00:17:33.605Z,0
2019-03-24T00:17:59.742Z,0
2019-03-24T00:18:25.882Z,0
2019-03-24T00:18:51.988Z,0
2019-03-24T00:19:18.119Z,0
2019-03-24T00:19:44.222Z,0
2019-03-24T00:20:10.545Z,0
2019-03-24T00:20:36.613Z,0
2019-03-24T00:21:02.714Z,0
2019-03-24T00:21:28.819Z,0
2019-03-24T00:21:54.935Z,0
2019-03-24T00:22:21.043Z,0
2019-03-24T00:22:47.145Z,0
2019-03-24T00:23:13.255Z,0
2019-03-24T00:23:39.357Z,0
2019-03-24T00:24:05.465Z,0
2019-03-24T00:24:31.603Z,0
2019-03-24T00:24:57.711Z,0
2019-03-24T00:25:23.822Z,0
2019-03-24T00:25:49.933Z,0
2019-03-24T00:26:16.037Z,0
2019-03-24T00:26:43.158Z,0
2019-03-24T00:27:09.267Z,0
2019-03-24T00:27:35.428Z,0
2019-03-24T00:28:01.577Z,0
2019-03-24T00:28:27.712Z,0
2019-03-24T00:28:53.823Z,0
2019-03-24T00:29:19.932Z,0
2019-03-24T00:29:46.039Z,0
2019-03-24T00:30:12.175Z,0
2019-03-24T00:30:38.287Z,0
2019-03-24T00:31:04.392Z,0
2019-03-24T00:31:30.501Z,0
2019-03-24T00:31:56.613Z,0
2019-03-24T00:32:22.721Z,0
2019-03-24T00:32:48.829Z,0
2019-03-24T00:33:14.932Z,0
2019-03-24T00:33:41.047Z,0
2019-03-24T00:34:07.177Z,0
2019-03-24T00:34:33.279Z,0
2019-03-24T00:34:59.390Z,0
2019-03-24T00:35:25.531Z,0
2019-03-24T00:35:51.634Z,0
2019-03-24T00:36:17.746Z,0
2019-03-24T00:36:43.882Z,0
2019-03-24T00:37:09.992Z,0
2019-03-24T00:37:36.100Z,0
2019-03-24T00:38:02.201Z,0
2019-03-24T00:38:28.318Z,0
2019-03-24T00:38:54.427Z,0
2019-03-24T00:39:20.551Z,0
2019-03-24T00:39:46.660Z,0
2019-03-24T00:40:12.765Z,0
2019-03-24T00:40:38.873Z,0
2019-03-24T00:41:04.982Z,0
2019-03-24T00:41:31.090Z,0
2019-03-24T00:41:57.192Z,0
2019-03-24T00:42:23.323Z,0
2019-03-24T00:42:49.426Z,0
2019-03-24T00:43:15.535Z,0
2019-03-24T00:43:41.665Z,0
2019-03-24T00:44:07.766Z,0
2019-03-24T00:44:33.874Z,0
2019-03-24T00:44:59.986Z,0
2019-03-24T00:45:36.136Z,0
2019-03-24T00:45:53.208Z,0
2019-03-24T00:46:19.322Z,0
2019-03-24T00:46:45.431Z,0
2019-03-24T00:47:11.535Z,0
2019-03-24T00:47:37.641Z,0
2019-03-24T00:48:04.740Z,0
2019-03-24T00:48:30.876Z,0
2019-03-24T00:48:57.016Z,0
2019-03-24T00:49:23.124Z,0
2019-03-24T00:49:49.257Z,0
2019-03-24T00:50:15.362Z,0
2019-03-24T00:50:41.498Z,0
2019-03-24T00:51:07.606Z,0
2019-03-24T00:51:33.713Z,0
2019-03-24T00:51:59.839Z,0
2019-03-24T00:52:25.951Z,0
2019-03-24T00:52:52.056Z,0
2019-03-24T00:53:18.166Z,0
2019-03-24T00:53:44.263Z,0
2019-03-24T00:54:10.377Z,0
2019-03-24T00:54:36.482Z,0
2019-03-24T00:55:02.593Z,0
2019-03-24T00:55:28.693Z,0
2019-03-24T00:55:54.806Z,0
2019-03-24T00:56:20.940Z,0
2019-03-24T00:56:47.043Z,0
2019-03-24T00:57:13.182Z,0
2019-03-24T00:57:39.292Z,0
2019-03-24T00:58:05.399Z,0
2019-03-24T00:58:31.506Z,0
2019-03-24T00:58:57.608Z,0
2019-03-24T00:59:23.714Z,0
2019-03-24T00:59:49.820Z,0
2019-03-24T01:00:16.078Z,0
2019-03-24T01:00:42.184Z,0
2019-03-24T01:01:08.352Z,0
2019-03-24T01:01:34.465Z,0
2019-03-24T01:02:00.566Z,0
2019-03-24T01:02:26.710Z,0
2019-03-24T01:02:52.872Z,0
2019-03-24T01:03:18.991Z,0
2019-03-24T01:03:45.120Z,0
2019-03-24T01:04:11.230Z,0
2019-03-24T01:04:37.332Z,0
2019-03-24T01:05:03.445Z,0
2019-03-24T01:05:29.579Z,0
2019-03-24T01:05:55.692Z,0
2019-03-24T01:06:21.821Z,0
2019-03-24T01:06:47.934Z,0
2019-03-24T01:07:14.090Z,0
2019-03-24T01:07:40.194Z,0
2019-03-24T01:08:06.309Z,0
2019-03-24T01:08:32.508Z,0
2019-03-24T01:08:58.604Z,0
2019-03-24T01:09:24.708Z,0
2019-03-24T01:09:50.853Z,0
2019-03-24T01:10:16.954Z,0
2019-03-24T01:10:43.063Z,0
2019-03-24T01:11:09.175Z,0
2019-03-24T01:11:35.286Z,0
2019-03-24T01:12:01.390Z,0
2019-03-24T01:12:27.497Z,0
2019-03-24T01:12:53.609Z,0
2019-03-24T01:13:19.713Z,0
2019-03-24T01:13:45.816Z,0
2019-03-24T01:14:11.927Z,0
2019-03-24T01:14:38.041Z,0
2019-03-24T01:15:04.145Z,0
2019-03-24T01:15:30.277Z,0
2019-03-24T01:15:57.393Z,0
2019-03-24T01:16:23.528Z,0
2019-03-24T01:16:49.672Z,0
2019-03-24T01:17:15.806Z,0
2019-03-24T01:17:41.944Z,0
2019-03-24T01:18:08.056Z,0
2019-03-24T01:18:34.191Z,0
2019-03-24T01:19:00.296Z,0
2019-03-24T01:19:26.397Z,0
2019-03-24T01:19:52.503Z,0
2019-03-24T01:20:18.621Z,0
2019-03-24T01:20:44.725Z,0
2019-03-24T01:21:10.830Z,0
2019-03-24T01:21:36.939Z,0
2019-03-24T01:22:03.052Z,0
2019-03-24T01:22:29.169Z,0
2019-03-24T01:22:55.295Z,0
2019-03-24T01:23:21.398Z,0
2019-03-24T01:23:47.503Z,0
2019-03-24T01:24:13.610Z,0
2019-03-24T01:24:39.719Z,0
2019-03-24T01:25:05.819Z,0
2019-03-24T01:25:31.958Z,0
2019-03-24T01:25:58.121Z,0
2019-03-24T01:26:24.229Z,0
2019-03-24T01:26:50.334Z,0
2019-03-24T01:27:16.444Z,0
2019-03-24T01:27:42.554Z,0
2019-03-24T01:28:08.659Z,0
2019-03-24T01:28:34.805Z,0
2019-03-24T01:29:00.932Z,0
2019-03-24T01:29:27.075Z,0
2019-03-24T01:29:53.180Z,0
2019-03-24T01:30:19.314Z,0
2019-03-24T01:30:45.418Z,0
2019-03-24T01:31:11.535Z,0
2019-03-24T01:31:37.633Z,0
2019-03-24T01:32:03.765Z,0
2019-03-24T01:32:29.869Z,0
2019-03-24T01:32:55.985Z,0
2019-03-24T01:33:22.087Z,0
2019-03-24T01:33:48.191Z,0
2019-03-24T01:34:14.324Z,0
2019-03-24T01:34:40.440Z,0
2019-03-24T01:35:06.547Z,0
2019-03-24T01:35:32.659Z,0
2019-03-24T01:35:58.762Z,0
2019-03-24T01:36:24.873Z,0
2019-03-24T01:36:50.979Z,0
2019-03-24T01:37:17.081Z,0
2019-03-24T01:37:43.192Z,0
2019-03-24T01:38:09.337Z,0
2019-03-24T01:38:35.471Z,0
2019-03-24T01:39:01.598Z,0
2019-03-24T01:39:27.708Z,0
2019-03-24T01:39:53.814Z,0
2019-03-24T01:40:19.934Z,0
2019-03-24T01:40:46.057Z,0
2019-03-24T01:41:13.142Z,0
2019-03-24T01:41:39.239Z,0
2019-03-24T01:42:05.350Z,0
2019-03-24T01:42:31.455Z,0
2019-03-24T01:42:57.603Z,0
2019-03-24T01:43:23.673Z,0
2019-03-24T01:43:49.806Z,0
2019-03-24T01:44:15.916Z,0
2019-03-24T01:44:42.025Z,0
2019-03-24T01:45:08.130Z,0
2019-03-24T01:45:34.262Z,0
2019-03-24T01:46:02.346Z,0
2019-03-24T01:46:28.489Z,0
2019-03-24T01:46:54.593Z,0
2019-03-24T01:47:20.712Z,0
2019-03-24T01:47:46.872Z,0
2019-03-24T01:48:12.978Z,0
2019-03-24T01:48:39.081Z,0
2019-03-24T01:49:05.224Z,0
2019-03-24T01:49:31.406Z,0
2019-03-24T01:49:57.508Z,0
2019-03-24T01:50:23.610Z,0
2019-03-24T01:50:49.723Z,0
2019-03-24T01:51:15.830Z,0
2019-03-24T01:51:41.935Z,0
2019-03-24T01:52:08.040Z,0
2019-03-24T01:52:34.151Z,0
2019-03-24T01:53:00.260Z,0
2019-03-24T01:53:26.389Z,0
2019-03-24T01:53:52.537Z,0
2019-03-24T01:54:18.645Z,0
2019-03-24T01:54:44.783Z,0
2019-03-24T01:55:10.894Z,0
2019-03-24T01:55:36.999Z,0
2019-03-24T01:56:03.108Z,0
2019-03-24T01:56:29.209Z,0
2019-03-24T01:56:55.320Z,0
2019-03-24T01:57:21.427Z,0
2019-03-24T01:57:47.537Z,0
2019-03-24T01:58:13.641Z,0
2019-03-24T01:58:39.747Z,0
2019-03-24T01:59:05.857Z,0
2019-03-24T01:59:31.963Z,0
2019-03-24T01:59:58.070Z,0
2019-03-24T02:00:24.179Z,0
2019-03-24T02:00:50.322Z,0
2019-03-24T02:01:16.433Z,0
2019-03-24T02:01:42.570Z,0
2019-03-24T02:02:08.674Z,0
2019-03-24T02:02:34.783Z,0
2019-03-24T02:03:00.889Z,0
2019-03-24T02:03:27.024Z,0
2019-03-24T02:03:53.133Z,0
2019-03-24T02:04:19.238Z,0
2019-03-24T02:04:45.368Z,0
2019-03-24T02:05:11.473Z,0
2019-03-24T02:05:37.578Z,0
2019-03-24T02:06:03.690Z,0
2019-03-24T02:06:29.798Z,0
2019-03-24T02:06:55.908Z,0
2019-03-24T02:07:22.010Z,0
2019-03-24T02:07:48.112Z,0
2019-03-24T02:08:14.222Z,0
2019-03-24T02:08:40.333Z,0
2019-03-24T02:09:06.448Z,0
2019-03-24T02:09:32.584Z,0
2019-03-24T02:09:58.696Z,0
2019-03-24T02:10:24.799Z,0
2019-03-24T02:10:50.904Z,0
2019-03-24T02:11:17.014Z,0
2019-03-24T02:11:43.110Z,0
2019-03-24T02:12:09.231Z,0
2019-03-24T02:12:35.370Z,0
2019-03-24T02:13:01.485Z,0
2019-03-24T02:13:27.589Z,0
2019-03-24T02:13:53.727Z,0
2019-03-24T02:14:19.834Z,0
2019-03-24T02:14:45.939Z,0
2019-03-24T02:15:12.053Z,0
2019-03-24T02:15:38.156Z,0
2019-03-24T02:16:09.197Z,0
2019-03-24T02:16:31.383Z,0
2019-03-24T02:16:59.192Z,0
2019-03-24T02:17:24.586Z,0
2019-03-24T02:17:50.696Z,0
2019-03-24T02:18:16.804Z,0
2019-03-24T02:18:42.913Z,0
2019-03-24T02:19:09.014Z,0
2019-03-24T02:19:35.128Z,0
2019-03-24T02:20:01.231Z,0
2019-03-24T02:20:27.340Z,0
2019-03-24T02:20:53.443Z,0
2019-03-24T02:21:19.551Z,0
2019-03-24T02:21:45.656Z,0
2019-03-24T02:22:11.801Z,0
2019-03-24T02:22:37.932Z,0
2019-03-24T02:23:04.069Z,0
2019-03-24T02:23:30.182Z,0
2019-03-24T02:23:56.327Z,0
2019-03-24T02:24:22.438Z,0
2019-03-24T02:24:48.544Z,0
2019-03-24T02:25:14.677Z,0
2019-03-24T02:25:40.793Z,0
2019-03-24T02:26:06.899Z,0
2019-03-24T02:26:33.007Z,0
2019-03-24T02:26:59.108Z,0
2019-03-24T02:27:25.216Z,0
2019-03-24T02:27:51.323Z,0
2019-03-24T02:28:17.603Z,0
2019-03-24T02:28:43.682Z,0
2019-03-24T02:29:09.807Z,0
2019-03-24T02:29:35.944Z,0
2019-03-24T02:30:02.053Z,0
2019-03-24T02:30:28.153Z,0
2019-03-24T02:30:54.269Z,0
2019-03-24T02:31:20.409Z,0
2019-03-24T02:31:46.551Z,0
2019-03-24T02:32:12.682Z,0
2019-03-24T02:32:38.839Z,0
2019-03-24T02:33:04.970Z,0
2019-03-24T02:33:31.076Z,0
2019-03-24T02:33:57.221Z,0
2019-03-24T02:34:23.331Z,0
2019-03-24T02:34:49.487Z,0
2019-03-24T02:35:15.640Z,0
2019-03-24T02:35:41.744Z,0
2019-03-24T02:36:07.914Z,0
2019-03-24T02:36:34.081Z,0
2019-03-24T02:37:00.245Z,0
2019-03-24T02:37:26.406Z,0
2019-03-24T02:37:52.623Z,0
2019-03-24T02:38:18.714Z,0
2019-03-24T02:38:44.883Z,0
2019-03-24T02:39:11.014Z,0
2019-03-24T02:39:37.154Z,0
2019-03-24T02:40:03.293Z,0
2019-03-24T02:40:29.462Z,0
2019-03-24T02:40:55.614Z,0
2019-03-24T02:41:21.722Z,0
2019-03-24T02:41:47.829Z,0
2019-03-24T02:42:14.026Z,0
2019-03-24T02:42:40.153Z,0
2019-03-24T02:43:06.315Z,0
2019-03-24T02:43:32.428Z,0
2019-03-24T02:43:58.534Z,0
2019-03-24T02:44:24.638Z,0
2019-03-24T02:44:50.763Z,0
2019-03-24T02:45:16.915Z,0
2019-03-24T02:45:43.062Z,0
2019-03-24T02:46:23.049Z,0
2019-03-24T02:46:36.357Z,0
2019-03-24T02:47:02.461Z,0
2019-03-24T02:47:28.625Z,0
2019-03-24T02:47:54.741Z,0
2019-03-24T02:48:20.908Z,0
2019-03-24T02:48:47.023Z,0
2019-03-24T02:49:13.126Z,0
2019-03-24T02:49:39.233Z,0
2019-03-24T02:50:05.686Z,0
2019-03-24T02:50:31.867Z,0
2019-03-24T02:50:58.014Z,0
2019-03-24T02:51:24.170Z,0
2019-03-24T02:51:50.320Z,0
2019-03-24T02:52:16.461Z,0
2019-03-24T02:52:42.597Z,0
2019-03-24T02:53:08.740Z,0
2019-03-24T02:53:34.881Z,0
2019-03-24T02:54:01.033Z,0
2019-03-24T02:54:27.138Z,0
2019-03-24T02:54:53.247Z,0
2019-03-24T02:55:19.389Z,0
2019-03-24T02:55:45.520Z,0
2019-03-24T02:56:11.629Z,0
2019-03-24T02:56:37.741Z,0
2019-03-24T02:57:03.873Z,0
2019-03-24T02:57:30.033Z,0
2019-03-24T02:57:56.203Z,0
2019-03-24T02:58:22.367Z,0
2019-03-24T02:58:48.471Z,0
2019-03-24T02:59:14.637Z,0
2019-03-24T02:59:40.778Z,0
2019-03-24T03:00:06.972Z,0
2019-03-24T03:00:33.096Z,0
2019-03-24T03:00:59.232Z,0
2019-03-24T03:01:25.369Z,0
2019-03-24T03:01:51.499Z,0
2019-03-24T03:02:17.708Z,0
2019-03-24T03:02:43.901Z,0
2019-03-24T03:03:10.013Z,0
2019-03-24T03:03:36.137Z,0
2019-03-24T03:04:02.299Z,0
2019-03-24T03:04:28.497Z,0
2019-03-24T03:04:54.594Z,0
2019-03-24T03:05:20.755Z,0
2019-03-24T03:05:46.914Z,0
2019-03-24T03:06:13.050Z,0
2019-03-24T03:06:39.157Z,0
2019-03-24T03:07:05.295Z,0
2019-03-24T03:07:31.397Z,0
2019-03-24T03:07:57.534Z,0
2019-03-24T03:08:23.667Z,0
2019-03-24T03:08:49.872Z,0
2019-03-24T03:09:15.992Z,0
2019-03-24T03:09:42.160Z,0
2019-03-24T03:10:08.295Z,0
2019-03-24T03:10:34.455Z,0
2019-03-24T03:11:00.598Z,0
2019-03-24T03:11:26.754Z,0
2019-03-24T03:11:52.865Z,0
2019-03-24T03:12:19.035Z,0
2019-03-24T03:12:47.597Z,0
2019-03-24T03:13:12.343Z,0
2019-03-24T03:13:38.512Z,0
2019-03-24T03:14:04.617Z,0
2019-03-24T03:14:30.727Z,0
2019-03-24T03:14:56.861Z,0
2019-03-24T03:15:23.133Z,0
2019-03-24T03:15:49.261Z,0
2019-03-24T03:16:15.369Z,0
2019-03-24T03:16:43.496Z,0
2019-03-24T03:17:09.588Z,0
2019-03-24T03:17:35.725Z,0
2019-03-24T03:18:01.828Z,0
2019-03-24T03:18:27.954Z,0
2019-03-24T03:18:54.091Z,0
2019-03-24T03:19:20.224Z,0
2019-03-24T03:19:46.343Z,0
2019-03-24T03:20:13.463Z,0
2019-03-24T03:20:39.572Z,0
2019-03-24T03:21:05.713Z,0
2019-03-24T03:21:31.851Z,0
2019-03-24T03:21:57.979Z,0
2019-03-24T03:22:24.146Z,0
2019-03-24T03:22:50.251Z,0
2019-03-24T03:23:16.360Z,0
2019-03-24T03:23:42.543Z,0
2019-03-24T03:24:08.656Z,0
2019-03-24T03:24:34.818Z,0
2019-03-24T03:25:00.959Z,0
2019-03-24T03:25:27.057Z,0
2019-03-24T03:25:53.163Z,0
2019-03-24T03:26:19.389Z,0
2019-03-24T03:26:45.496Z,0
2019-03-24T03:27:11.632Z,0
2019-03-24T03:27:37.743Z,0
2019-03-24T03:28:03.878Z,0
2019-03-24T03:28:29.985Z,0
2019-03-24T03:28:56.136Z,0
2019-03-24T03:29:22.263Z,0
2019-03-24T03:29:48.379Z,0
2019-03-24T03:30:14.542Z,0
2019-03-24T03:30:40.678Z,0
2019-03-24T03:31:06.849Z,0
2019-03-24T03:31:32.953Z,0
2019-03-24T03:31:59.129Z,0
2019-03-24T03:32:25.293Z,0
2019-03-24T03:32:51.497Z,0
2019-03-24T03:33:17.626Z,0
2019-03-24T03:33:43.754Z,0
2019-03-24T03:34:09.998Z,0
2019-03-24T03:34:36.265Z,0
2019-03-24T03:35:02.570Z,0
2019-03-24T03:35:28.811Z,0
2019-03-24T03:35:54.973Z,0
2019-03-24T03:36:21.103Z,0
2019-03-24T03:36:47.278Z,0
2019-03-24T03:37:13.407Z,0
2019-03-24T03:37:39.601Z,0
2019-03-24T03:38:05.771Z,0
2019-03-24T03:38:31.878Z,0
2019-03-24T03:38:58.023Z,0
2019-03-24T03:39:24.176Z,0
2019-03-24T03:39:50.344Z,0
2019-03-24T03:40:17.807Z,0
2019-03-24T03:40:44.007Z,0
2019-03-24T03:41:10.131Z,0
2019-03-24T03:41:36.277Z,0
2019-03-24T03:42:02.427Z,0
2019-03-24T03:42:28.555Z,0
2019-03-24T03:42:54.764Z,0
2019-03-24T03:43:20.864Z,0
2019-03-24T03:43:46.990Z,0
2019-03-24T03:44:13.131Z,0
2019-03-24T03:44:39.244Z,0
2019-03-24T03:45:05.623Z,0
2019-03-24T03:45:31.728Z,0
2019-03-24T03:45:58.834Z,0
2019-03-24T03:46:25.007Z,0
2019-03-24T03:46:53.237Z,0
2019-03-24T03:47:18.353Z,0
2019-03-24T03:47:44.465Z,0
2019-03-24T03:48:10.595Z,0
2019-03-24T03:48:36.725Z,0
2019-03-24T03:49:02.841Z,0
2019-03-24T03:49:28.991Z,0
2019-03-24T03:49:55.131Z,0
2019-03-24T03:50:21.457Z,0
2019-03-24T03:50:47.559Z,0
2019-03-24T03:51:13.700Z,0
2019-03-24T03:51:39.877Z,0
2019-03-24T03:52:06.027Z,0
2019-03-24T03:52:32.199Z,0
2019-03-24T03:52:58.307Z,0
2019-03-24T03:53:24.438Z,0
2019-03-24T03:53:50.574Z,0
2019-03-24T03:54:17.669Z,0
2019-03-24T03:54:43.860Z,0
2019-03-24T03:55:10.064Z,0
2019-03-24T03:55:36.198Z,0
2019-03-24T03:56:02.301Z,0
2019-03-24T03:56:28.471Z,0
2019-03-24T03:56:54.583Z,0
2019-03-24T03:57:20.690Z,0
2019-03-24T03:57:46.913Z,0
2019-03-24T03:58:13.020Z,0
2019-03-24T03:58:39.190Z,0
2019-03-24T03:59:05.324Z,0
2019-03-24T03:59:31.458Z,0
2019-03-24T03:59:57.568Z,0
2019-03-24T04:00:23.708Z,0
2019-03-24T04:00:49.822Z,0
2019-03-24T04:01:15.978Z,0
2019-03-24T04:01:42.137Z,0
2019-03-24T04:02:08.251Z,0
2019-03-24T04:02:34.411Z,0
2019-03-24T04:03:00.517Z,0
2019-03-24T04:03:26.650Z,0
2019-03-24T04:03:52.790Z,0
2019-03-24T04:04:18.918Z,0
2019-03-24T04:04:45.051Z,0
2019-03-24T04:05:11.187Z,0
2019-03-24T04:05:37.296Z,0
2019-03-24T04:06:03.444Z,0
2019-03-24T04:06:29.683Z,0
2019-03-24T04:06:55.816Z,0
2019-03-24T04:07:21.965Z,0
2019-03-24T04:07:48.091Z,0
2019-03-24T04:08:14.304Z,0
2019-03-24T04:08:40.466Z,0
2019-03-24T04:09:06.649Z,0
2019-03-24T04:09:32.770Z,0
2019-03-24T04:09:58.903Z,0
2019-03-24T04:10:25.012Z,0
2019-03-24T04:10:51.198Z,0
2019-03-24T04:11:17.396Z,0
2019-03-24T04:11:43.514Z,0
2019-03-24T04:12:09.635Z,0
2019-03-24T04:12:35.793Z,0
2019-03-24T04:13:01.903Z,0
2019-03-24T04:13:28.074Z,0
2019-03-24T04:13:54.253Z,0
2019-03-24T04:14:20.459Z,0
2019-03-24T04:14:46.603Z,0
2019-03-24T04:15:12.730Z,0
2019-03-24T04:15:38.866Z,0
2019-03-24T04:16:04.983Z,0
2019-03-24T04:16:31.114Z,0
2019-03-24T04:17:06.641Z,0
2019-03-24T04:17:25.402Z,0
2019-03-24T04:17:51.506Z,0
2019-03-24T04:18:17.692Z,0
2019-03-24T04:18:43.831Z,0
2019-03-24T04:19:09.984Z,0
2019-03-24T04:19:36.153Z,0
2019-03-24T04:20:02.296Z,0
2019-03-24T04:20:28.496Z,0
2019-03-24T04:20:54.649Z,0
2019-03-24T04:21:20.785Z,0
2019-03-24T04:21:46.926Z,0
2019-03-24T04:22:13.065Z,0
2019-03-24T04:22:39.196Z,0
2019-03-24T04:23:05.696Z,0
2019-03-24T04:23:32.201Z,0
2019-03-24T04:23:58.775Z,0
2019-03-24T04:24:25.004Z,0
2019-03-24T04:24:51.200Z,0
2019-03-24T04:25:17.391Z,0
2019-03-24T04:25:43.545Z,0
2019-03-24T04:26:09.692Z,0
2019-03-24T04:26:35.806Z,0
2019-03-24T04:27:01.972Z,0
2019-03-24T04:27:28.105Z,0
2019-03-24T04:27:54.268Z,0
2019-03-24T04:28:20.382Z,0
2019-03-24T04:28:46.484Z,0
2019-03-24T04:29:12.617Z,0
2019-03-24T04:29:38.817Z,0
2019-03-24T04:30:04.951Z,0
2019-03-24T04:30:31.116Z,0
2019-03-24T04:30:57.254Z,0
2019-03-24T04:31:23.448Z,0
2019-03-24T04:31:49.546Z,0
2019-03-24T04:32:15.657Z,0
2019-03-24T04:32:41.787Z,0
2019-03-24T04:33:07.898Z,0
2019-03-24T04:33:34.060Z,0
2019-03-24T04:34:00.244Z,0
2019-03-24T04:34:26.411Z,0
2019-03-24T04:34:52.554Z,0
2019-03-24T04:35:18.665Z,0
2019-03-24T04:35:44.850Z,0
2019-03-24T04:36:10.934Z,0
2019-03-24T04:36:37.105Z,0
2019-03-24T04:37:03.217Z,0
2019-03-24T04:37:29.352Z,0
2019-03-24T04:37:55.584Z,0
2019-03-24T04:38:21.684Z,0
2019-03-24T04:38:47.822Z,0
2019-03-24T04:39:13.927Z,0
2019-03-24T04:39:40.096Z,0
2019-03-24T04:40:06.205Z,0
2019-03-24T04:40:32.347Z,0
2019-03-24T04:40:58.454Z,0
2019-03-24T04:41:24.560Z,0
2019-03-24T04:41:50.690Z,0
2019-03-24T04:42:16.792Z,0
2019-03-24T04:42:42.962Z,0
2019-03-24T04:43:09.067Z,0
2019-03-24T04:43:35.177Z,0
2019-03-24T04:44:01.317Z,0
2019-03-24T04:44:27.446Z,0
2019-03-24T04:44:53.553Z,0
2019-03-24T04:45:19.659Z,0
2019-03-24T04:45:45.786Z,0
2019-03-24T04:46:11.896Z,0
2019-03-24T04:46:37.999Z,0
2019-03-24T04:47:04.104Z,0
2019-03-24T04:47:31.225Z,0
2019-03-24T04:47:57.358Z,0
2019-03-24T04:48:23.477Z,0
2019-03-24T04:48:49.605Z,0
2019-03-24T04:49:15.710Z,0
2019-03-24T04:49:41.817Z,0
2019-03-24T04:50:07.983Z,0
2019-03-24T04:50:34.088Z,4
2019-03-24T04:51:00.190Z,4
2019-03-24T04:51:26.302Z,4
2019-03-24T04:51:52.409Z,4
2019-03-24T04:52:18.520Z,4
2019-03-24T04:52:44.624Z,0
2019-03-24T04:53:10.735Z,0
2019-03-24T04:53:36.847Z,4
2019-03-24T04:54:02.987Z,4
2019-03-24T04:54:29.091Z,4
2019-03-24T04:54:55.201Z,4
2019-03-24T04:55:21.306Z,4
2019-03-24T04:55:47.458Z,8
2019-03-24T04:56:13.520Z,4
2019-03-24T04:56:39.654Z,4
2019-03-24T04:57:05.765Z,4
2019-03-24T04:57:31.874Z,8
2019-03-24T04:57:58.011Z,4
2019-03-24T04:58:24.168Z,8
2019-03-24T04:58:50.271Z,8
2019-03-24T04:59:16.380Z,12
2019-03-24T04:59:42.470Z,8
2019-03-24T05:00:08.581Z,12
2019-03-24T05:00:34.688Z,8
2019-03-24T05:01:00.791Z,12
2019-03-24T05:01:26.907Z,12
2019-03-24T05:01:53.044Z,12
2019-03-24T05:02:19.179Z,12
2019-03-24T05:02:45.321Z,16
2019-03-24T05:03:11.424Z,16
2019-03-24T05:03:37.561Z,16
2019-03-24T05:04:03.671Z,20
2019-03-24T05:04:29.772Z,20
2019-03-24T05:04:55.881Z,20
2019-03-24T05:05:21.986Z,24
2019-03-24T05:05:48.091Z,28
2019-03-24T05:06:14.195Z,32
2019-03-24T05:06:40.339Z,32
2019-03-24T05:07:06.438Z,32
2019-03-24T05:07:32.579Z,36
2019-03-24T05:07:58.683Z,40
2019-03-24T05:08:24.791Z,40
2019-03-24T05:08:50.897Z,44
2019-03-24T05:09:17.006Z,48
2019-03-24T05:09:43.136Z,52
2019-03-24T05:10:09.272Z,56
2019-03-24T05:10:35.381Z,64
2019-03-24T05:11:01.492Z,64
2019-03-24T05:11:27.598Z,68
2019-03-24T05:11:53.712Z,76
2019-03-24T05:12:19.809Z,80
2019-03-24T05:12:45.936Z,88
2019-03-24T05:13:12.046Z,92
2019-03-24T05:13:38.151Z,100
2019-03-24T05:14:04.259Z,104
2019-03-24T05:14:30.391Z,112
2019-03-24T05:14:56.501Z,120
2019-03-24T05:15:22.637Z,128
2019-03-24T05:15:48.741Z,136
2019-03-24T05:16:14.843Z,144
2019-03-24T05:16:40.960Z,152
2019-03-24T05:17:07.091Z,160
2019-03-24T05:17:35.176Z,172
2019-03-24T05:18:01.289Z,180
2019-03-24T05:18:27.448Z,192
2019-03-24T05:18:53.560Z,200
2019-03-24T05:19:19.664Z,208
2019-03-24T05:19:45.776Z,220
2019-03-24T05:20:11.912Z,232
2019-03-24T05:20:38.055Z,248
2019-03-24T05:21:04.162Z,256
2019-03-24T05:21:30.274Z,268
2019-03-24T05:21:56.373Z,284
2019-03-24T05:22:22.476Z,296
2019-03-24T05:22:48.613Z,308
2019-03-24T05:23:14.746Z,324
2019-03-24T05:23:40.860Z,340
2019-03-24T05:24:06.986Z,356
2019-03-24T05:24:33.094Z,372
2019-03-24T05:24:59.204Z,388
2019-03-24T05:25:25.309Z,404
2019-03-24T05:25:51.418Z,424
2019-03-24T05:26:17.521Z,436
2019-03-24T05:26:43.635Z,460
2019-03-24T05:27:09.744Z,476
2019-03-24T05:27:35.874Z,500
2019-03-24T05:28:01.982Z,520
2019-03-24T05:28:28.087Z,540
2019-03-24T05:28:54.224Z,564
2019-03-24T05:29:20.333Z,588
2019-03-24T05:29:46.467Z,612
2019-03-24T05:30:12.574Z,640
2019-03-24T05:30:38.687Z,668
2019-03-24T05:31:04.785Z,688
2019-03-24T05:31:30.894Z,716
2019-03-24T05:31:57.031Z,740
2019-03-24T05:32:23.143Z,772
2019-03-24T05:32:49.274Z,800
2019-03-24T05:33:15.378Z,828
2019-03-24T05:33:41.486Z,856
2019-03-24T05:34:07.617Z,884
2019-03-24T05:34:33.728Z,912
2019-03-24T05:34:59.839Z,944
2019-03-24T05:35:26.719Z,972
2019-03-24T05:35:52.860Z,1004
2019-03-24T05:36:18.967Z,1040
2019-03-24T05:36:45.076Z,1072
2019-03-24T05:37:11.169Z,1100
2019-03-24T05:37:37.282Z,1128
2019-03-24T05:38:03.385Z,1156
2019-03-24T05:38:29.493Z,1184
2019-03-24T05:38:55.606Z,1208
2019-03-24T05:39:21.711Z,1228
2019-03-24T05:39:47.854Z,1260
2019-03-24T05:40:13.953Z,1292
2019-03-24T05:40:40.067Z,1332
2019-03-24T05:41:06.173Z,1372
2019-03-24T05:41:32.957Z,1408
2019-03-24T05:41:59.085Z,1448
2019-03-24T05:42:25.198Z,1492
2019-03-24T05:42:51.303Z,1540
2019-03-24T05:43:17.409Z,1588
2019-03-24T05:43:43.543Z,1640
2019-03-24T05:44:09.676Z,1696
2019-03-24T05:44:35.787Z,1760
2019-03-24T05:45:01.891Z,1820
2019-03-24T05:45:28.025Z,1888
2019-03-24T05:45:54.154Z,1952
2019-03-24T05:46:20.319Z,2004
2019-03-24T05:46:46.426Z,2056
2019-03-24T05:47:12.529Z,2100
2019-03-24T05:47:40.615Z,2152
2019-03-24T05:48:06.728Z,2200
2019-03-24T05:48:32.860Z,2244
2019-03-24T05:48:58.976Z,2288
2019-03-24T05:49:25.105Z,2332
2019-03-24T05:49:51.237Z,2376
2019-03-24T05:50:17.347Z,2424
2019-03-24T05:50:43.511Z,2456
2019-03-24T05:51:09.614Z,2484
2019-03-24T05:51:35.724Z,2508
2019-03-24T05:52:01.853Z,2532
2019-03-24T05:52:27.965Z,2556
2019-03-24T05:52:54.077Z,2584
2019-03-24T05:53:20.182Z,2612
2019-03-24T05:53:46.290Z,2652
2019-03-24T05:54:12.393Z,2688
2019-03-24T05:54:38.531Z,2712
2019-03-24T05:55:04.672Z,2728
2019-03-24T05:55:30.772Z,2744
2019-03-24T05:55:56.882Z,2784
2019-03-24T05:56:23.020Z,2836
2019-03-24T05:56:49.160Z,2880
2019-03-24T05:57:15.346Z,2920
2019-03-24T05:57:41.483Z,2964
2019-03-24T05:58:07.584Z,3000
2019-03-24T05:58:33.693Z,3036
2019-03-24T05:58:59.799Z,3064
2019-03-24T05:59:25.903Z,3096
2019-03-24T05:59:52.012Z,3132
2019-03-24T06:00:18.146Z,3160
2019-03-24T06:00:44.255Z,3200
2019-03-24T06:01:10.389Z,3256
2019-03-24T06:01:36.532Z,3292
2019-03-24T06:02:02.639Z,3344
2019-03-24T06:02:28.742Z,3388
2019-03-24T06:02:54.851Z,3404
2019-03-24T06:03:20.962Z,3420
2019-03-24T06:03:47.101Z,3440
2019-03-24T06:04:13.209Z,3480
2019-03-24T06:04:39.317Z,3544
2019-03-24T06:05:05.462Z,3608
2019-03-24T06:05:31.570Z,3660
2019-03-24T06:05:57.680Z,3704
2019-03-24T06:06:23.788Z,3760
2019-03-24T06:06:49.900Z,3828
2019-03-24T06:07:16.004Z,3888
2019-03-24T06:07:42.140Z,3940
2019-03-24T06:08:08.270Z,3960
2019-03-24T06:08:35.828Z,3988
2019-03-24T06:09:01.485Z,3992
2019-03-24T06:09:27.617Z,4000
2019-03-24T06:09:53.725Z,4020
2019-03-24T06:10:19.830Z,4060
2019-03-24T06:10:45.961Z,4156
2019-03-24T06:11:12.071Z,4248
2019-03-24T06:11:38.213Z,4308
2019-03-24T06:12:04.320Z,4352
2019-03-24T06:12:30.454Z,4424
2019-03-24T06:12:56.559Z,4476
2019-03-24T06:13:22.701Z,4512
2019-03-24T06:13:48.848Z,4540
2019-03-24T06:14:14.913Z,4556
2019-03-24T06:14:41.024Z,4588
2019-03-24T06:15:07.163Z,4660
2019-03-24T06:15:33.271Z,4684
2019-03-24T06:15:59.411Z,4704
2019-03-24T06:16:25.548Z,4752
2019-03-24T06:16:51.777Z,4828
2019-03-24T06:17:17.886Z,4908
2019-03-24T06:17:47.916Z,5016
2019-03-24T06:18:11.146Z,5132
2019-03-24T06:18:37.252Z,5184
2019-03-24T06:19:03.355Z,5220
2019-03-24T06:19:29.464Z,5300
2019-03-24T06:19:55.576Z,5348